Airfield :
LOGIN :

Register | Disclaimer

   EN    FR    IT 

 










Legend :    VFR   Marginal VFR   IFR   Intensive IFR   Very Intensive IFR
Visi :
Ceiling :
>= 8 km
>= 3000ft
5 to 8 km
1000 to 3000 ft
1500m to 5 km
500 to 1000 ft
800 to 1500m
200 to 500 ft
< 800m
< 200 ft
Symbols :   Thunderstorms  Fog  Heavy snow  Heavy precipitations  Wind > 20 kt
SIGMETs :     Misc.  Thunderstorms  Icing  Turbulence  Mountain Waves  Volcanic Ashes







- Airport Elevation : 49 ft
- IATA code : GLZ


EHGR - Gilze-Rijen Airbase

CURRENT METAR :
  • 190325Z AUTO 16003KT 7000 BR OVC120 M01/M03 Q1021 WHT

EXPIRED METARs :
  • 190301Z AUTO 16004KT 8000 BR OVC130 M01/M03 Q1021 BLU
  • 190255Z AUTO 17005KT 7000 BR OVC140 M01/M02 Q1021 WHT
  • 190245Z AUTO 17004KT 8000 BR OVC140 M01/M03 Q1021 BLU
  • 190226Z AUTO 18004KT 7000 BR OVC130 M01/M03 Q1021 WHT
  • 190225Z AUTO 17004KT 8000 BR OVC120 M01/M03 Q1021 BLU
  • 190155Z AUTO 17004KT 8000 BR OVC130 M01/M03 Q1021 BLU
  • 190125Z AUTO 19005KT 8000 BR OVC140 M01/M03 Q1022 BLU
  • 190055Z AUTO 17004KT 9000 BR BKN150 OVC230 M01/M03 Q1022 BLU

Expired Forecast.
No reported NOTAMs for that airfield.



MET'MAP, your aeronautical weather chart ! - Copyright ORBIFLY December 2007 - Disclaimer

ORBIFLY MET'MAP TEAM :

Programming & Development : Alexandra Zaïnal
Concept & Development : Baudouin d'Aumeries
Co-Development & Prog : Marc-Olivier Méhu
Technical & hardware support : Manuel Goepfert

Contact : metmap@orbifly.com




SOURCES & CREDITS :

   NOAA